KBIF/BIF METAR and TAF weather

Enter ICAO airport designator
Station Type Date Time Source
KBIF METAR 2022/12/04 04:55 UTC NOAA

KBIF 040455Z AUTO 28005KT 10SM BKN110 BKN130 13/06 A3029 RMK AO2 SLP213 T01280057 $


Station Type Date Time Source
KBIF Decoded METAR 2022/12/04 04:55 UTC NOAA

Biggs Army Air Field / Ft. Bliss, TX, United States (KBIF) 31-51N 106-23W
Dec 03, 2022 - 11:55 PM EST / 2022.12.04 0455 UTC
Wind: from the W (280 degrees) at 6 MPH (5 KT):0
Visibility: 10 mile(s):0
Sky conditions: mostly cloudy
Temperature: 55.0 F (12.8 C)
Dew Point: 42.3 F (5.7 C)
Relative Humidity: 61%
Pressure (altimeter): 30.29 in. Hg (1025 hPa)
ob: KBIF 040455Z AUTO 28005KT 10SM BKN110 BKN130 13/06 A3029 RMK AO2 SLP213 T01280057
cycle: 5

Station Type Date Time Source
KBIF TAF 2022/12/03 22:16 UTC NOAA

TAF KBIF 032200Z 0322/0504 09006KT 9999 SCT070 OVC100 QNH3012INS
BECMG 0403/0404 07009KT 9999 VCSH OVC080 QNH3024INS
BECMG 0409/0410 VRB06KT 9999 NSW OVC100 QNH3023INS TX16/0422Z TN05/0414Z

Example: see airport list